Escanaba, MI

4:50 PM EST on December 17, 2014 (GMT -0500)
Soo Hill Location near | Change Station
CLOSE
Current Station
Personal Weather Station
Location: Escanaba, MI
Elevation: 708 ft
Nearby Weather Stations

Elev 708 ft 45.80 °N, 87.13 °W | Updated 10 seconds ago

Overcast
Overcast
27.3 °F
Feels Like 23 °F
N
4.0
Wind Variable Wind from NW
Gusts 10.5 mph

Today
High -- | Low -- °F
--% Chance of Precip.
Yesterday
High -- | Low -- °F
Precip. -- in
8:24 AM 5:05 PM
Waning Crescent, 19% visible
Pressure 30.09 in
Visibility 10.0 miles
Clouds Overcast 2600 ft
Windchill 23 °F
Dew Point 15 °F
Humidity 60%
Rainfall 0.00 in
Snow Depth Not available.
UV 0 out of 12
Pollen .10 out of 12
Air Quality Not available.
Flu Activity Not available.
METAR KESC 172135Z AUTO 33011G17KT 10SM OVC026 M02/M07 A3009 RMK AO1

More Conditions Fewer Conditions

Pressure 30.09 in
Visibility 10.0 miles
Clouds Overcast 2600 ft
Windchill 23 °F
Dew Point 15 °F
Humidity 60%
Rainfall 0.00 in
Snow Depth Not available.
UV 0 out of 12
Pollen .10 out of 12
Air Quality Not available.
Flu Activity Not available.
METAR KESC 172135Z AUTO 33011G17KT 10SM OVC026 M02/M07 A3009 RMK AO1

More Conditions Fewer Conditions

10-Day Weather Forecast

Almanac

Astronomy

Dec. 17, 2014 Rise Set
Actual Time
Civil Twilight
Nautical Twilight
Astronomical Twilight
Moon
Length of Visible Light
Length of Day
Tomorrow will be .
, % of the Moon is Illuminated

Today's Extremes

State Highs State Lows

Community

WunderPhotos

Upload Photos

1,778,807 photos uploaded!

WunderBlogs® & News

Nearby

Air Quality

  Air Quality AQ Index Pollutant
Not available.

Snow Depth

Station Depth Elevation

Earthquake Activity

City Distance Mag. Time & Date
Minimum magnitude displayed is 2.5.

Coastal Water Temperatures

Place Temperature

Nearby Weather Stations